Time;durP1;ratioP1;P1;durP2;ratioP2;P2;SDS_P1;SDS_P2;PMS_P1;PMS_P2;Temp;Humidity;BMP_temperature;BMP_pressure;BME280_temperature;BME280_humidity;BME280_pressure;Samples;Min_cycle;Max_cycle;Signal;HPM_P1;HPM_P2
2023/10/12 00:01:57;;;;;;;;;;;;;;;25.95;33.28;101743.22;5064844;28;1104;-29
2023/10/12 00:04:43;;;;;;;;;;;;;;;25.89;33.78;101743.84;5077943;28;1122;-25
2023/10/12 00:09:41;;;;;;;;;;;;;;;26.06;33.69;101747.53;5077339;28;1905;-25
2023/10/12 00:12:09;;;;;;;;;;;;;;;25.80;33.65;101738.34;5077917;28;1139;-26
2023/10/12 00:14:35;;;;;;;;;;;;;;;25.69;33.83;101743.94;5077511;28;1144;-25
2023/10/12 00:17:01;;;;;;;;;;;;;;;25.80;33.84;101737.50;5082110;28;1122;-25
2023/10/12 00:19:27;;;;;;;;;;;;;;;25.72;33.82;101726.59;5077966;28;1046;-25
2023/10/12 00:22:08;;;;;;;;;;;;;;;25.86;33.89;101734.19;5077142;28;1117;-28
2023/10/12 00:24:34;;;;;;;;;;;;;;;25.85;33.64;101734.34;5086873;28;1098;-27
2023/10/12 00:26:59;;;;;;;;;;;;;;;25.72;33.98;101730.16;5082292;28;1113;-24
2023/10/12 00:29:25;;;;;;;;;;;;;;;25.68;34.13;101732.31;5083954;28;1910;-26
2023/10/12 00:31:52;;;;;;;;;;;;;;;25.67;34.25;101730.59;5081064;28;1229;-25
2023/10/12 00:34:23;;;;;;;;;;;;;;;25.65;34.26;101726.34;5059616;28;1068;-24
2023/10/12 00:36:52;;;;;;;;;;;;;;;25.70;33.92;101713.28;5058926;28;1191;-25
2023/10/12 00:39:20;;;;;;;;;;;;;;;25.87;33.69;101719.72;5059596;28;1321;-23
2023/10/12 00:41:45;;;;;;;;;;;;;;;25.86;33.97;101720.72;5081265;28;1103;-25
2023/10/12 00:49:20;;;;;;;;;;;;;;;25.73;33.91;101694.13;5077385;28;1977;-25
2023/10/12 00:51:52;;;;;;;;;;;;;;;25.76;33.96;101691.13;5076916;28;1223;-26
2023/10/12 00:54:27;;;;;;;;;;;;;;;25.89;33.81;101706.91;5088155;28;1155;-24
2023/10/12 00:56:53;;;;;;;;;;;;;;;25.96;33.42;101704.47;5065918;28;1043;-26
2023/10/12 00:59:22;;;;;;;;;;;;;;;26.03;33.69;101716.34;5076837;28;1058;-26
2023/10/12 01:01:50;;;;;;;;;;;;;;;25.89;33.80;101711.50;5059123;28;1129;-27
2023/10/12 01:04:16;;;;;;;;;;;;;;;25.96;33.76;101714.44;5076741;28;1135;-24
2023/10/12 01:06:44;;;;;;;;;;;;;;;25.87;34.12;101714.34;5067697;28;957;-26
2023/10/12 01:09:19;;;;;;;;;;;;;;;26.07;33.29;101707.97;5072584;28;1918;-25
2023/10/12 01:11:52;;;;;;;;;;;;;;;26.09;33.47;101706.78;5053281;28;1261;-24
2023/10/12 01:14:17;;;;;;;;;;;;;;;25.89;33.67;101704.22;5067255;28;1148;-24
2023/10/12 01:16:54;;;;;;;;;;;;;;;25.71;34.00;101698.81;5080328;28;1047;-24
2023/10/12 01:19:23;;;;;;;;;;;;;;;25.60;33.95;101672.88;5064745;28;941;-24
2023/10/12 01:21:52;;;;;;;;;;;;;;;25.70;34.37;101697.13;5051916;28;1065;-25
2023/10/12 01:24:18;;;;;;;;;;;;;;;25.67;34.04;101702.81;5063497;28;1063;-25
2023/10/12 01:26:44;;;;;;;;;;;;;;;25.77;34.04;101698.22;5076700;28;1151;-26
2023/10/12 01:29:21;;;;;;;;;;;;;;;25.72;34.12;101705.03;5058549;28;1973;-27
2023/10/12 01:31:53;;;;;;;;;;;;;;;25.71;34.17;101697.97;5049466;28;1128;-25
2023/10/12 01:34:24;;;;;;;;;;;;;;;25.85;33.73;101697.47;5076435;28;1082;-27
2023/10/12 01:36:50;;;;;;;;;;;;;;;25.76;34.03;101703.72;5076377;28;1055;-25
2023/10/12 01:39:18;;;;;;;;;;;;;;;25.67;34.30;101700.94;5076583;28;1122;-25
2023/10/12 01:41:47;;;;;;;;;;;;;;;25.55;34.23;101708.38;5076532;28;1052;-26
2023/10/12 01:44:12;;;;;;;;;;;;;;;25.63;33.78;101706.78;5076307;28;1210;-26
2023/10/12 01:46:41;;;;;;;;;;;;;;;25.58;34.06;101700.97;5076497;28;1136;-24
2023/10/12 01:49:07;;;;;;;;;;;;;;;25.62;34.07;101699.69;5076726;28;2068;-24
2023/10/12 01:51:36;;;;;;;;;;;;;;;25.54;34.29;101695.06;5076062;28;1043;-25
2023/10/12 01:54:05;;;;;;;;;;;;;;;25.51;34.42;101701.56;5064413;28;1412;-27
2023/10/12 01:56:31;;;;;;;;;;;;;;;25.70;33.96;101693.56;5076924;28;1137;-25
2023/10/12 01:58:57;;;;;;;;;;;;;;;25.89;33.46;101698.00;5058513;28;1164;-23
2023/10/12 02:01:24;;;;;;;;;;;;;;;25.69;34.08;101695.44;5058132;28;1147;-24
2023/10/12 02:03:54;;;;;;;;;;;;;;;25.73;34.10;101691.41;5089321;28;1115;-25
2023/10/12 02:06:22;;;;;;;;;;;;;;;25.71;33.98;101696.09;5051760;28;805;-26
2023/10/12 02:08:52;;;;;;;;;;;;;;;25.75;34.09;101697.53;5041927;28;1967;-24
2023/10/12 02:13:47;;;;;;;;;;;;;;;25.83;33.89;101702.16;5037827;28;1276;-27
2023/10/12 02:16:13;;;;;;;;;;;;;;;25.88;33.51;101696.28;5056089;28;1106;-27
2023/10/12 02:18:39;;;;;;;;;;;;;;;25.78;33.71;101696.34;5061812;28;1043;-26
2023/10/12 02:21:20;;;;;;;;;;;;;;;25.76;34.07;101696.50;5036324;28;1132;-24
2023/10/12 02:24:30;;;;;;;;;;;;;;;25.70;34.22;101699.81;5051880;28;1063;-23
2023/10/12 02:31:29;;;;;;;;;;;;;;;25.70;33.80;101690.88;5077021;28;876;-24
2023/10/12 02:33:55;;;;;;;;;;;;;;;25.76;34.03;101682.19;5046296;28;1289;-26
2023/10/12 02:36:21;;;;;;;;;;;;;;;25.71;33.86;101679.94;5073071;28;1039;-25
2023/10/12 02:38:47;;;;;;;;;;;;;;;25.73;33.76;101688.72;5041597;28;1081;-26
2023/10/12 02:41:13;;;;;;;;;;;;;;;25.71;33.80;101682.63;5070683;28;1100;-24
2023/10/12 02:43:43;;;;;;;;;;;;;;;25.72;34.03;101683.50;5059436;28;858;-25
2023/10/12 02:46:21;;;;;;;;;;;;;;;25.67;34.11;101684.78;5040451;28;1128;-26
2023/10/12 02:48:47;;;;;;;;;;;;;;;25.79;33.75;101685.41;5059615;28;1965;-25
2023/10/12 02:51:14;;;;;;;;;;;;;;;25.65;34.14;101688.63;5059329;28;1139;-24
2023/10/12 02:53:40;;;;;;;;;;;;;;;25.75;33.80;101686.75;5041180;28;1164;-24
2023/10/12 02:56:06;;;;;;;;;;;;;;;25.69;33.96;101692.75;5061717;28;968;-27
2023/10/12 02:58:32;;;;;;;;;;;;;;;25.64;33.78;101689.66;5059179;28;1036;-26
2023/10/12 03:00:58;;;;;;;;;;;;;;;25.59;33.99;101691.91;5062395;28;1152;-25
2023/10/12 03:03:31;;;;;;;;;;;;;;;25.75;33.77;101700.22;5069414;28;1150;-24
2023/10/12 03:06:06;;;;;;;;;;;;;;;25.74;33.81;101689.59;5059679;28;1040;-27
2023/10/12 03:08:33;;;;;;;;;;;;;;;25.71;34.11;101679.94;5063643;28;1906;-24
2023/10/12 03:13:35;;;;;;;;;;;;;;;25.71;33.92;101682.63;5081940;28;1100;-27
2023/10/12 03:16:08;;;;;;;;;;;;;;;25.75;33.66;101686.75;5078446;28;1123;-25
2023/10/12 03:18:34;;;;;;;;;;;;;;;25.50;34.19;101680.16;5065388;28;1658;-25
2023/10/12 03:21:04;;;;;;;;;;;;;;;25.34;34.63;101681.63;5078901;28;1043;-24
2023/10/12 03:23:37;;;;;;;;;;;;;;;25.36;34.24;101678.84;5078601;28;1059;-25
2023/10/12 03:26:18;;;;;;;;;;;;;;;25.34;34.55;101678.94;5079305;28;1107;-25
2023/10/12 03:28:44;;;;;;;;;;;;;;;25.27;34.60;101684.09;5060413;28;1973;-26
2023/10/12 03:31:35;;;;;;;;;;;;;;;25.22;34.46;101686.38;5087872;28;1083;-25
2023/10/12 03:34:01;;;;;;;;;;;;;;;25.21;34.31;101684.69;5065964;28;1036;-26
2023/10/12 03:36:31;;;;;;;;;;;;;;;25.42;33.97;101683.63;5066273;28;1111;-25
2023/10/12 03:47:15;;;;;;;;;;;;;;;23.90;31.06;101680.47;5078547;28;1294;-27
2023/10/12 03:49:57;;;;;;;;;;;;;;;23.66;30.77;101671.78;5078829;28;1902;-28
2023/10/12 03:52:30;;;;;;;;;;;;;;;23.73;31.92;101672.09;5078781;28;1123;-27
2023/10/12 03:55:09;;;;;;;;;;;;;;;24.69;31.13;101669.78;5089358;28;1071;-24
2023/10/12 04:05:18;;;;;;;;;;;;;;;26.41;29.08;101683.88;5077883;28;2109;-28
2023/10/12 04:18:32;;;;;;;;;;;;;;;30.18;24.67;101688.59;5064780;28;1250;-26
2023/10/12 04:20:58;;;;;;;;;;;;;;;30.19;24.90;101691.16;5064227;28;1190;-23
2023/10/12 04:28:55;;;;;;;;;;;;;;;29.66;26.33;101693.69;5042353;28;1898;-24
2023/10/12 04:31:21;;;;;;;;;;;;;;;30.67;24.42;101695.53;5083453;28;1269;-29
2023/10/12 04:39:15;;;;;;;;;;;;;;;30.18;25.39;101685.88;5079202;28;1124;-26
2023/10/12 04:46:58;;;;;;;;;;;;;;;30.61;25.33;101688.13;5069882;28;1031;-25
2023/10/12 04:54:58;;;;;;;;;;;;;;;27.41;29.30;101636.91;5066486;28;1261;-27
2023/10/12 04:57:27;;;;;;;;;;;;;;;29.18;27.22;101676.41;5082458;28;1011;-26
2023/10/12 05:07:54;;;;;;;;;;;;;;;29.01;27.50;101681.03;5087997;28;1094;-25
2023/10/12 05:13:05;;;;;;;;;;;;;;;29.19;27.49;101690.81;5074359;28;2762;-24
2023/10/12 05:15:41;;;;;;;;;;;;;;;29.93;26.44;101686.91;5073134;28;1403;-26
2023/10/12 05:18:07;;;;;;;;;;;;;;;28.44;28.29;101685.50;5068711;28;1289;-24
2023/10/12 05:20:32;;;;;;;;;;;;;;;28.28;29.07;101697.94;5083546;28;1265;-26
2023/10/12 05:22:58;;;;;;;;;;;;;;;29.54;26.85;101661.53;5066048;28;1270;-24
2023/10/12 05:25:32;;;;;;;;;;;;;;;28.42;28.46;101693.78;5092415;28;1075;-25
2023/10/12 05:28:13;;;;;;;;;;;;;;;28.49;28.48;101693.94;5085561;28;1111;-26
2023/10/12 05:30:46;;;;;;;;;;;;;;;29.39;27.28;101690.38;5089340;28;1921;-26
2023/10/12 05:33:28;;;;;;;;;;;;;;;29.52;26.73;101692.53;5094977;28;829;-25
2023/10/12 05:35:57;;;;;;;;;;;;;;;29.37;27.02;101696.00;5077227;28;1075;-26
2023/10/12 05:38:34;;;;;;;;;;;;;;;28.30;28.84;101695.06;5089588;28;1004;-27
2023/10/12 05:41:05;;;;;;;;;;;;;;;29.27;26.79;101692.63;5084667;28;2298;-25
2023/10/12 05:43:33;;;;;;;;;;;;;;;29.23;24.89;101697.56;5077294;28;1058;-26
2023/10/12 05:46:10;;;;;;;;;;;;;;;28.28;27.13;101697.13;5070711;28;1110;-24
2023/10/12 05:48:41;;;;;;;;;;;;;;;28.49;28.99;101702.06;5085829;28;1898;-27
2023/10/12 05:51:09;;;;;;;;;;;;;;;28.67;28.65;101699.19;5086874;28;1066;-29
2023/10/12 05:53:35;;;;;;;;;;;;;;;27.68;28.37;101667.38;5076416;28;1174;-26
2023/10/12 05:56:01;;;;;;;;;;;;;;;27.89;28.29;101706.69;5079519;28;1004;-24
2023/10/12 05:58:26;;;;;;;;;;;;;;;28.80;27.90;101708.63;5067566;28;1034;-25
2023/10/12 06:00:52;;;;;;;;;;;;;;;27.74;29.65;101702.75;5095545;28;1028;-27
2023/10/12 06:03:20;;;;;;;;;;;;;;;27.49;30.42;101713.44;5095415;28;1075;-27
2023/10/12 06:05:46;;;;;;;;;;;;;;;28.15;29.47;101711.97;5085021;28;1030;-27
2023/10/12 06:08:12;;;;;;;;;;;;;;;27.44;30.85;101704.13;5070087;28;1251;-27
2023/10/12 06:10:42;;;;;;;;;;;;;;;27.95;30.06;101714.13;5084006;28;2564;-27
2023/10/12 06:13:12;;;;;;;;;;;;;;;27.97;29.98;101706.72;5078304;28;1147;-27
2023/10/12 06:15:53;;;;;;;;;;;;;;;28.91;28.77;101713.69;5084406;28;1159;-27
2023/10/12 06:18:21;;;;;;;;;;;;;;;28.04;30.01;101705.03;5089586;28;1019;-26
2023/10/12 06:20:58;;;;;;;;;;;;;;;28.13;29.63;101714.00;5089379;28;1262;-24
2023/10/12 06:23:24;;;;;;;;;;;;;;;28.45;29.36;101688.03;5095755;28;1027;-24
2023/10/12 06:25:49;;;;;;;;;;;;;;;27.81;30.31;101713.75;5095745;28;1170;-26
2023/10/12 06:28:17;;;;;;;;;;;;;;;27.92;29.95;101715.31;5080128;28;1084;-23
2023/10/12 06:30:43;;;;;;;;;;;;;;;28.24;29.84;101713.66;5073197;28;1907;-25
2023/10/12 06:33:13;;;;;;;;;;;;;;;28.60;29.33;101715.25;5072741;28;1246;-25
2023/10/12 06:35:58;;;;;;;;;;;;;;;28.40;29.61;101708.47;5056046;28;1227;-25
2023/10/12 06:38:37;;;;;;;;;;;;;;;28.41;29.54;101708.31;5058066;28;1082;-24
2023/10/12 06:46:17;;;;;;;;;;;;;;;28.60;29.47;101712.53;5078750;28;1344;-25
2023/10/12 06:48:47;;;;;;;;;;;;;;;28.47;29.78;101709.50;5074244;28;1910;-23
2023/10/12 06:51:16;;;;;;;;;;;;;;;28.53;29.56;101710.69;5072800;28;1332;-26
2023/10/12 06:53:44;;;;;;;;;;;;;;;28.79;29.37;101710.50;5074317;28;1313;-24
2023/10/12 06:56:21;;;;;;;;;;;;;;;28.31;29.80;101704.91;5072482;28;1273;-25
2023/10/12 06:59:21;;;;;;;;;;;;;;;28.58;29.53;101708.31;5073852;28;1312;-25
2023/10/12 07:04:15;;;;;;;;;;;;;;;28.62;29.38;101708.81;5070833;28;1050;-24
2023/10/12 07:06:57;;;;;;;;;;;;;;;28.63;29.25;101697.81;5073452;28;1304;-26
2023/10/12 07:09:43;;;;;;;;;;;;;;;28.49;29.53;101702.06;5076334;28;1977;-24
2023/10/12 07:12:09;;;;;;;;;;;;;;;28.41;29.78;101704.78;5069223;28;1892;-24
2023/10/12 07:14:38;;;;;;;;;;;;;;;28.47;29.30;101699.53;5065232;28;1278;-27
2023/10/12 07:17:04;;;;;;;;;;;;;;;28.27;29.67;101698.97;5071495;28;1367;-25
2023/10/12 07:19:30;;;;;;;;;;;;;;;28.51;29.47;101694.59;5057588;28;1278;-28
2023/10/12 07:21:56;;;;;;;;;;;;;;;28.64;29.16;101701.38;5081338;28;1125;-25
2023/10/12 07:24:26;;;;;;;;;;;;;;;28.42;29.59;101692.91;5078575;28;1341;-25
2023/10/12 07:26:51;;;;;;;;;;;;;;;28.23;29.95;101694.91;5065120;28;1178;-24
2023/10/12 07:29:35;;;;;;;;;;;;;;;28.15;30.14;101698.44;5060858;28;1917;-25
2023/10/12 07:32:08;;;;;;;;;;;;;;;28.12;30.20;101696.09;5063657;28;1162;-24
2023/10/12 07:34:33;;;;;;;;;;;;;;;27.48;30.24;101567.69;5061471;28;1189;-23
2023/10/12 07:36:59;;;;;;;;;;;;;;;28.23;29.89;101690.34;5061375;28;1214;-24
2023/10/12 07:39:38;;;;;;;;;;;;;;;28.15;30.21;101686.78;5061001;28;1191;-24
2023/10/12 07:42:05;;;;;;;;;;;;;;;28.28;29.88;101684.41;5060803;28;1883;-26
2023/10/12 07:44:39;;;;;;;;;;;;;;;28.36;29.72;101683.63;5060911;28;1192;-23
2023/10/12 07:47:14;;;;;;;;;;;;;;;28.62;29.54;101687.16;5060188;28;1189;-27
2023/10/12 07:49:47;;;;;;;;;;;;;;;28.48;29.62;101687.69;5062349;28;1970;-28
2023/10/12 07:54:57;;;;;;;;;;;;;;;28.21;30.42;101676.13;5060152;28;1145;-23
2023/10/12 07:57:22;;;;;;;;;;;;;;;28.32;29.82;101682.22;5065713;28;1168;-24
2023/10/12 08:13:14;;;;;;;;;;;;;;;29.64;27.63;101682.19;5072816;28;1092;-28
2023/10/12 08:21:30;;;;;;;;;;;;;;;29.44;28.37;101671.75;5086567;28;1166;-26
2023/10/12 08:29:09;;;;;;;;;;;;;;;28.97;28.75;101663.44;5057531;28;1963;-26
2023/10/12 08:31:42;;;;;;;;;;;;;;;29.20;28.57;101663.53;5084700;28;1048;-25
2023/10/12 08:34:42;;;;;;;;;;;;;;;29.28;28.34;101662.66;5085475;28;864;-25
2023/10/12 08:39:38;;;;;;;;;;;;;;;29.44;28.06;101666.31;5071209;28;1325;-25
2023/10/12 08:44:58;;;;;;;;;;;;;;;29.53;28.04;101659.00;5049460;28;1254;-24
2023/10/12 08:47:44;;;;;;;;;;;;;;;29.47;28.17;101649.69;5071532;28;1277;-26
2023/10/12 08:52:50;;;;;;;;;;;;;;;29.46;28.28;101648.84;5095510;28;1094;-28
2023/10/12 08:55:19;;;;;;;;;;;;;;;29.63;28.10;101646.06;5074345;28;1147;-25
2023/10/12 08:57:56;;;;;;;;;;;;;;;29.71;27.90;101650.63;5068072;28;1071;-25
2023/10/12 09:03:00;;;;;;;;;;;;;;;29.84;27.68;101641.88;5058493;28;1047;-28
2023/10/12 09:05:33;;;;;;;;;;;;;;;29.75;28.14;101640.25;5058577;28;1059;-28
2023/10/12 09:10:48;;;;;;;;;;;;;;;29.85;27.94;101642.72;5088370;28;1906;-27
2023/10/12 09:13:17;;;;;;;;;;;;;;;29.96;27.53;101642.31;5057577;28;1004;-28
2023/10/12 09:15:45;;;;;;;;;;;;;;;29.99;27.53;101635.69;5057707;28;1151;-27
2023/10/12 09:18:16;;;;;;;;;;;;;;;30.13;27.68;101634.88;5057222;28;1059;-28
2023/10/12 09:23:38;;;;;;;;;;;;;;;30.11;27.76;101622.53;5070415;28;1013;-26
2023/10/12 09:28:42;;;;;;;;;;;;;;;30.16;27.62;101617.41;5060287;28;1083;-26
2023/10/12 09:31:09;;;;;;;;;;;;;;;30.19;27.64;101620.59;5064456;28;1325;-28
2023/10/12 09:33:45;;;;;;;;;;;;;;;30.12;27.52;101614.22;5055549;28;1482;-26
2023/10/12 09:36:11;;;;;;;;;;;;;;;30.25;27.46;101608.19;5042208;28;1352;-24
2023/10/12 09:38:38;;;;;;;;;;;;;;;29.99;28.36;101605.84;5077617;28;1032;-27
2023/10/12 09:41:04;;;;;;;;;;;;;;;30.03;27.96;101604.47;5089229;28;2394;-25
2023/10/12 09:43:30;;;;;;;;;;;;;;;30.00;28.25;101599.38;5078213;28;965;-29
2023/10/12 09:46:05;;;;;;;;;;;;;;;29.90;28.22;101602.34;5083156;28;1059;-26
2023/10/12 09:48:38;;;;;;;;;;;;;;;29.71;28.84;101588.25;5064647;28;1147;-26
2023/10/12 09:51:06;;;;;;;;;;;;;;;29.65;28.76;101580.81;5068996;28;972;-25
2023/10/12 09:53:38;;;;;;;;;;;;;;;29.67;28.96;101584.19;5078737;28;1046;-24
2023/10/12 09:56:16;;;;;;;;;;;;;;;29.58;28.90;101577.94;5083790;28;1034;-27
2023/10/12 09:58:51;;;;;;;;;;;;;;;29.51;28.86;101574.28;5060125;28;1024;-25
2023/10/12 10:01:22;;;;;;;;;;;;;;;29.37;29.03;101567.75;5077836;28;1054;-28
2023/10/12 10:03:48;;;;;;;;;;;;;;;29.37;29.13;101565.03;5073689;28;1316;-25
2023/10/12 10:06:51;;;;;;;;;;;;;;;29.36;29.01;101558.81;5085079;28;1131;-24
2023/10/12 10:09:23;;;;;;;;;;;;;;;29.38;29.19;101548.59;5070311;28;1973;-24
2023/10/12 10:11:58;;;;;;;;;;;;;;;29.13;29.44;101551.47;5073061;28;2426;-24
2023/10/12 10:14:26;;;;;;;;;;;;;;;28.92;29.98;101538.50;5051143;28;1274;-28
2023/10/12 10:16:58;;;;;;;;;;;;;;;28.91;29.96;101539.53;5076326;28;1127;-24
2023/10/12 10:19:28;;;;;;;;;;;;;;;28.65;30.35;101533.34;5065524;28;1182;-25
2023/10/12 10:24:57;;;;;;;;;;;;;;;28.79;30.14;101530.94;5050846;28;1481;-24
2023/10/12 10:27:35;;;;;;;;;;;;;;;28.50;30.57;101530.53;5069229;28;1154;-25
2023/10/12 10:30:36;;;;;;;;;;;;;;;28.32;31.09;101525.31;5063362;28;1913;-27
2023/10/12 10:33:07;;;;;;;;;;;;;;;28.24;30.99;101518.88;5055854;28;1538;-25
2023/10/12 10:35:51;;;;;;;;;;;;;;;28.38;30.88;101526.53;5089814;28;989;-28
2023/10/12 10:38:17;;;;;;;;;;;;;;;28.31;31.04;101518.22;5073023;28;1020;-25
2023/10/12 10:40:48;;;;;;;;;;;;;;;27.93;31.74;101516.03;5080471;28;2485;-27
2023/10/12 10:43:16;;;;;;;;;;;;;;;28.08;31.89;101513.50;5074748;28;1012;-24
2023/10/12 10:45:56;;;;;;;;;;;;;;;28.15;31.60;101509.09;5091139;28;1097;-25
2023/10/12 10:48:24;;;;;;;;;;;;;;;28.07;31.52;101499.16;5099472;28;1043;-24
2023/10/12 10:50:51;;;;;;;;;;;;;;;27.97;31.88;101502.03;5073787;28;1906;-24
2023/10/12 10:53:20;;;;;;;;;;;;;;;28.36;31.26;101503.16;5098704;28;1018;-23
2023/10/12 10:55:47;;;;;;;;;;;;;;;28.01;31.92;101493.59;5087176;28;1068;-27
2023/10/12 10:58:14;;;;;;;;;;;;;;;27.79;32.04;101493.25;5097681;28;1073;-27
2023/10/12 11:00:45;;;;;;;;;;;;;;;27.56;32.53;101493.91;5079550;28;1182;-27
2023/10/12 11:03:16;;;;;;;;;;;;;;;28.63;30.71;101492.06;5095099;28;1075;-25
2023/10/12 11:05:44;;;;;;;;;;;;;;;28.05;32.23;101487.66;5085579;28;1062;-27
2023/10/12 11:08:19;;;;;;;;;;;;;;;28.67;31.04;101488.00;5089659;28;1203;-24
2023/10/12 11:13:32;;;;;;;;;;;;;;;28.56;31.06;101478.41;5079227;28;1115;-26
2023/10/12 11:16:20;;;;;;;;;;;;;;;28.65;30.87;101475.66;5099359;28;1042;-26
2023/10/12 11:18:49;;;;;;;;;;;;;;;28.54;31.25;101471.50;5072189;28;1059;-26
2023/10/12 11:21:15;;;;;;;;;;;;;;;28.53;31.24;101467.09;5087543;28;1077;-25
2023/10/12 11:23:44;;;;;;;;;;;;;;;28.53;31.21;101470.63;5083885;28;848;-26
2023/10/12 11:26:17;;;;;;;;;;;;;;;28.57;31.23;101465.72;5081554;28;1086;-27
2023/10/12 11:28:43;;;;;;;;;;;;;;;28.50;31.16;101459.31;5081657;28;1913;-24
2023/10/12 11:31:20;;;;;;;;;;;;;;;28.81;30.91;101462.03;5069356;28;1032;-26
2023/10/12 11:33:49;;;;;;;;;;;;;;;28.91;30.65;101464.53;5094890;28;1103;-26
2023/10/12 11:36:18;;;;;;;;;;;;;;;28.31;31.84;101442.47;5068099;28;1131;-25
2023/10/12 11:38:44;;;;;;;;;;;;;;;28.95;30.85;101451.47;5059632;28;1122;-25
2023/10/12 11:41:13;;;;;;;;;;;;;;;28.71;31.06;101443.31;5058831;28;1928;-25
2023/10/12 11:43:47;;;;;;;;;;;;;;;29.01;30.56;101442.66;5063362;28;1063;-27
2023/10/12 11:46:14;;;;;;;;;;;;;;;29.00;30.59;101442.84;5080701;28;1276;-24
2023/10/12 11:48:40;;;;;;;;;;;;;;;28.65;31.40;101438.63;5082098;28;1138;-27
2023/10/12 11:51:12;;;;;;;;;;;;;;;28.09;32.12;101437.59;5063726;28;1094;-28
2023/10/12 11:53:41;;;;;;;;;;;;;;;28.10;31.89;101435.75;5066283;28;1376;-26
2023/10/12 11:58:38;;;;;;;;;;;;;;;27.91;32.59;101439.69;5077563;28;1320;-24
2023/10/12 12:01:07;;;;;;;;;;;;;;;28.00;32.16;101435.94;5070820;28;1201;-26
2023/10/12 12:03:39;;;;;;;;;;;;;;;27.95;32.61;101431.06;5051812;28;1103;-28
2023/10/12 12:06:10;;;;;;;;;;;;;;;28.17;32.44;101427.78;5063694;28;1163;-27
2023/10/12 12:08:36;;;;;;;;;;;;;;;28.37;31.83;101428.25;5063194;28;1249;-24
2023/10/12 12:11:03;;;;;;;;;;;;;;;28.50;31.57;101421.41;5072405;28;1977;-27
2023/10/12 12:13:28;;;;;;;;;;;;;;;28.90;31.17;101419.53;5070960;28;1281;-26
2023/10/12 12:15:55;;;;;;;;;;;;;;;28.92;30.89;101416.63;5089149;28;1162;-24
2023/10/12 12:18:21;;;;;;;;;;;;;;;28.30;31.94;101416.41;5077534;28;1095;-26
2023/10/12 12:20:54;;;;;;;;;;;;;;;27.69;32.77;101409.63;5091201;28;1163;-28
2023/10/12 12:23:28;;;;;;;;;;;;;;;28.68;31.17;101410.34;5087942;28;1054;-24
2023/10/12 12:26:07;;;;;;;;;;;;;;;28.24;31.82;101412.56;5072380;28;985;-26
2023/10/12 12:28:33;;;;;;;;;;;;;;;28.83;30.96;101411.28;5081688;28;1054;-26
2023/10/12 12:31:02;;;;;;;;;;;;;;;28.39;31.48;101403.72;5074084;28;1910;-24
2023/10/12 12:33:28;;;;;;;;;;;;;;;27.71;33.00;101396.81;5075792;28;1351;-25
2023/10/12 12:36:10;;;;;;;;;;;;;;;27.45;33.13;101395.09;5089318;28;1391;-26
2023/10/12 12:41:47;;;;;;;;;;;;;;;28.26;31.93;101391.56;5063057;28;2361;-30
2023/10/12 12:43:53;;;;;;;;;;;;;;;28.78;30.94;101394.72;5081652;28;1284;-24
2023/10/12 12:46:18;;;;;;;;;;;;;;;27.82;32.80;101392.88;5089192;28;1094;-25
2023/10/12 12:48:50;;;;;;;;;;;;;;;27.41;33.56;101382.94;5083588;28;1975;-28
2023/10/12 12:51:17;;;;;;;;;;;;;;;27.14;33.61;101362.34;5096839;28;1086;-23
2023/10/12 12:53:46;;;;;;;;;;;;;;;28.39;31.89;101387.50;5097193;28;1054;-23
2023/10/12 12:56:15;;;;;;;;;;;;;;;28.43;31.90;101383.41;5087628;28;1192;-23
2023/10/12 12:58:46;;;;;;;;;;;;;;;28.69;30.97;101385.81;5077897;28;1115;-25
2023/10/12 13:01:12;;;;;;;;;;;;;;;27.91;31.94;101372.91;5078627;28;1230;-27
2023/10/12 13:03:38;;;;;;;;;;;;;;;27.79;31.91;101377.88;5073002;28;1422;-25
2023/10/12 13:06:07;;;;;;;;;;;;;;;28.89;30.02;101377.22;5071663;28;1394;-26
2023/10/12 13:08:34;;;;;;;;;;;;;;;29.06;30.47;101371.72;5071115;28;1214;-27
2023/10/12 13:10:59;;;;;;;;;;;;;;;28.49;29.47;101374.59;5065348;28;2392;-27
2023/10/12 13:13:25;;;;;;;;;;;;;;;28.35;28.94;101377.03;5092446;28;1028;-28
2023/10/12 13:15:50;;;;;;;;;;;;;;;28.90;27.94;101361.81;5077130;28;1096;-24
2023/10/12 13:18:16;;;;;;;;;;;;;;;28.38;28.82;101365.00;5081148;28;1471;-28
2023/10/12 13:20:46;;;;;;;;;;;;;;;28.63;28.61;101369.44;5066388;28;1250;-28
2023/10/12 13:23:17;;;;;;;;;;;;;;;28.65;28.13;101359.25;5083424;28;1040;-25
2023/10/12 13:25:42;;;;;;;;;;;;;;;29.32;26.67;101351.50;5096913;28;1077;-25
2023/10/12 13:28:10;;;;;;;;;;;;;;;28.73;27.49;101351.94;5078655;28;1023;-27
2023/10/12 13:30:36;;;;;;;;;;;;;;;29.56;26.76;101347.72;5089979;28;1910;-28
2023/10/12 13:33:03;;;;;;;;;;;;;;;29.84;26.90;101343.56;5067601;28;1344;-26
2023/10/12 13:35:31;;;;;;;;;;;;;;;29.60;27.28;101339.22;5094000;28;1079;-26
2023/10/12 13:38:02;;;;;;;;;;;;;;;29.89;27.04;101343.84;5093413;28;1045;-25
2023/10/12 13:40:29;;;;;;;;;;;;;;;30.15;26.85;101342.50;5078799;28;932;-27
2023/10/12 13:43:01;;;;;;;;;;;;;;;30.39;26.78;101335.09;5087949;28;2619;-28
2023/10/12 13:45:28;;;;;;;;;;;;;;;30.54;26.92;101335.06;5075943;28;1290;-27
2023/10/12 13:47:54;;;;;;;;;;;;;;;30.32;26.58;101339.59;5093082;28;1269;-25
2023/10/12 13:50:20;;;;;;;;;;;;;;;30.34;27.03;101333.97;5074629;28;1972;-25
2023/10/12 13:52:45;;;;;;;;;;;;;;;30.40;26.63;101331.34;5094615;28;1055;-25
2023/10/12 13:55:14;;;;;;;;;;;;;;;30.49;26.64;101325.78;5067383;28;1060;-26
2023/10/12 13:57:55;;;;;;;;;;;;;;;30.56;26.50;101321.28;5076422;28;1175;-29
2023/10/12 14:00:25;;;;;;;;;;;;;;;30.58;26.77;101318.38;5080904;28;1095;-30
2023/10/12 14:02:54;;;;;;;;;;;;;;;30.57;27.07;101327.53;5073696;28;1265;-27
2023/10/12 14:05:24;;;;;;;;;;;;;;;30.63;26.98;101327.59;5079680;28;1257;-31
2023/10/12 14:07:53;;;;;;;;;;;;;;;30.24;27.46;101305.28;5076014;28;1289;-28
2023/10/12 14:10:20;;;;;;;;;;;;;;;30.62;27.21;101319.66;5094397;28;1965;-25
2023/10/12 14:12:46;;;;;;;;;;;;;;;30.52;27.04;101328.13;5087696;28;2519;-27
2023/10/12 14:15:11;;;;;;;;;;;;;;;30.38;27.41;101319.00;5096015;28;1015;-30
2023/10/12 14:17:37;;;;;;;;;;;;;;;31.27;25.93;101321.50;5095356;28;1077;-26
2023/10/12 14:20:03;;;;;;;;;;;;;;;30.62;27.04;101317.78;5080864;28;1261;-26
2023/10/12 14:22:29;;;;;;;;;;;;;;;30.31;27.47;101318.94;5066519;28;1158;-26
2023/10/12 14:24:55;;;;;;;;;;;;;;;30.10;27.87;101316.94;5066505;28;1071;-28
2023/10/12 14:27:21;;;;;;;;;;;;;;;29.95;28.05;101317.81;5088237;28;1523;-31
2023/10/12 14:29:47;;;;;;;;;;;;;;;30.65;27.37;101313.84;5083058;28;1965;-27
2023/10/12 14:32:13;;;;;;;;;;;;;;;30.21;27.95;101315.66;5095209;28;1022;-26
2023/10/12 14:34:39;;;;;;;;;;;;;;;30.06;28.05;101311.91;5095427;28;1030;-27
2023/10/12 14:37:13;;;;;;;;;;;;;;;29.70;28.86;101305.41;5079190;28;871;-29
2023/10/12 14:39:39;;;;;;;;;;;;;;;29.31;29.28;101314.63;5083229;28;1123;-28
2023/10/12 14:42:06;;;;;;;;;;;;;;;29.09;29.85;101306.34;5073507;28;2261;-29
2023/10/12 14:44:33;;;;;;;;;;;;;;;28.70;30.45;101305.44;5095117;28;1535;-27
2023/10/12 14:47:04;;;;;;;;;;;;;;;29.06;29.87;101312.94;5094902;28;1046;-31
2023/10/12 14:49:33;;;;;;;;;;;;;;;28.86;30.27;101323.44;5085203;28;1969;-27
2023/10/12 14:52:00;;;;;;;;;;;;;;;28.68;30.58;101315.59;5094853;28;1073;-26
2023/10/12 14:54:25;;;;;;;;;;;;;;;28.55;30.75;101324.31;5095254;28;1018;-27
2023/10/12 14:56:53;;;;;;;;;;;;;;;27.77;30.80;101208.72;5095125;28;1091;-26
2023/10/12 14:59:19;;;;;;;;;;;;;;;28.90;30.17;101313.06;5096106;28;963;-25
2023/10/12 15:01:45;;;;;;;;;;;;;;;28.61;30.72;101315.50;5077656;28;884;-29
2023/10/12 15:04:10;;;;;;;;;;;;;;;28.27;31.47;101312.09;5095573;28;1000;-28
2023/10/12 15:06:36;;;;;;;;;;;;;;;28.60;28.89;101311.06;5078635;28;1269;-30
2023/10/12 15:09:03;;;;;;;;;;;;;;;28.69;28.93;101315.44;5084670;28;1961;-30
2023/10/12 15:11:30;;;;;;;;;;;;;;;27.70;29.65;101314.84;5068540;28;1844;-30
2023/10/12 15:13:56;;;;;;;;;;;;;;;26.60;31.23;101324.97;5086770;28;1095;-29
2023/10/12 15:16:24;;;;;;;;;;;;;;;26.61;31.63;101315.88;5090084;28;1105;-32
2023/10/12 15:18:49;;;;;;;;;;;;;;;27.89;28.76;101314.63;5080282;28;1074;-32
2023/10/12 15:21:16;;;;;;;;;;;;;;;26.77;30.19;101315.03;5072541;28;1356;-30
2023/10/12 15:23:42;;;;;;;;;;;;;;;26.14;31.49;101313.50;5071020;28;1277;-32